sensor_id;sensor_type;location;lat;lon;timestamp;pressure;altitude;pressure_sealevel;temperature;humidity
83557;BME280;73523;55.740;13.276;2023-12-20T00:02:08;99544.41;;;23.64;32.15
83557;BME280;73523;55.740;13.276;2023-12-20T00:04:33;99539.16;;;23.63;32.15
83557;BME280;73523;55.740;13.276;2023-12-20T00:06:58;99541.09;;;23.62;32.29
83557;BME280;73523;55.740;13.276;2023-12-20T00:09:24;99547.47;;;23.63;31.98
83557;BME280;73523;55.740;13.276;2023-12-20T00:11:49;99544.69;;;23.63;32.10
83557;BME280;73523;55.740;13.276;2023-12-20T00:14:14;99538.34;;;23.62;32.23
83557;BME280;73523;55.740;13.276;2023-12-20T00:16:40;99543.34;;;23.60;31.93
83557;BME280;73523;55.740;13.276;2023-12-20T00:19:05;99551.63;;;23.60;31.85
83557;BME280;73523;55.740;13.276;2023-12-20T00:21:30;99546.09;;;23.60;32.26
83557;BME280;73523;55.740;13.276;2023-12-20T00:23:56;99542.81;;;23.58;32.05
83557;BME280;73523;55.740;13.276;2023-12-20T00:26:21;99532.56;;;23.59;32.16
83557;BME280;73523;55.740;13.276;2023-12-20T00:28:46;99528.97;;;23.58;31.81
83557;BME280;73523;55.740;13.276;2023-12-20T00:31:11;99528.97;;;23.58;32.20
83557;BME280;73523;55.740;13.276;2023-12-20T00:33:37;99520.97;;;23.57;32.24
83557;BME280;73523;55.740;13.276;2023-12-20T00:36:02;99521.78;;;23.57;32.17
83557;BME280;73523;55.740;13.276;2023-12-20T00:38:28;99515.72;;;23.55;32.10
83557;BME280;73523;55.740;13.276;2023-12-20T00:40:53;99508.25;;;23.56;32.06
83557;BME280;73523;55.740;13.276;2023-12-20T00:43:18;99509.38;;;23.55;32.02
83557;BME280;73523;55.740;13.276;2023-12-20T00:45:44;99510.50;;;23.54;31.76
83557;BME280;73523;55.740;13.276;2023-12-20T00:48:09;99504.44;;;23.52;31.89
83557;BME280;73523;55.740;13.276;2023-12-20T00:50:34;99497.78;;;23.53;31.78
83557;BME280;73523;55.740;13.276;2023-12-20T00:53:00;99491.44;;;23.52;32.03
83557;BME280;73523;55.740;13.276;2023-12-20T00:55:25;99481.75;;;23.50;31.86
83557;BME280;73523;55.740;13.276;2023-12-20T00:57:50;99482.88;;;23.49;32.18
83557;BME280;73523;55.740;13.276;2023-12-20T01:00:16;99480.09;;;23.49;32.20
83557;BME280;73523;55.740;13.276;2023-12-20T01:02:41;99478.44;;;23.48;31.95
83557;BME280;73523;55.740;13.276;2023-12-20T01:05:07;99473.22;;;23.46;31.97
83557;BME280;73523;55.740;13.276;2023-12-20T01:07:34;99467.44;;;23.43;31.96
83557;BME280;73523;55.740;13.276;2023-12-20T01:09:59;99473.59;;;23.40;32.19
83557;BME280;73523;55.740;13.276;2023-12-20T01:12:24;99457.84;;;23.35;32.11
83557;BME280;73523;55.740;13.276;2023-12-20T01:14:50;99452.63;;;23.33;32.46
83557;BME280;73523;55.740;13.276;2023-12-20T01:17:15;99452.91;;;23.32;32.41
83557;BME280;73523;55.740;13.276;2023-12-20T01:19:41;99458.75;;;23.30;32.31
83557;BME280;73523;55.740;13.276;2023-12-20T01:22:06;99449.09;;;23.28;32.39
83557;BME280;73523;55.740;13.276;2023-12-20T01:24:31;99448.28;;;23.27;32.38
83557;BME280;73523;55.740;13.276;2023-12-20T01:26:57;99446.91;;;23.25;32.51
83557;BME280;73523;55.740;13.276;2023-12-20T01:29:22;99455.50;;;23.23;32.19
83557;BME280;73523;55.740;13.276;2023-12-20T01:31:47;99444.75;;;23.22;32.35
83557;BME280;73523;55.740;13.276;2023-12-20T01:34:13;99433.97;;;23.20;32.47
83557;BME280;73523;55.740;13.276;2023-12-20T01:36:38;99424.34;;;23.18;32.61
83557;BME280;73523;55.740;13.276;2023-12-20T01:39:03;99434.59;;;23.17;32.48
83557;BME280;73523;55.740;13.276;2023-12-20T01:41:29;99415.81;;;23.14;32.25
83557;BME280;73523;55.740;13.276;2023-12-20T01:43:54;99416.63;;;23.15;32.55
83557;BME280;73523;55.740;13.276;2023-12-20T01:46:20;99414.16;;;23.13;32.11
83557;BME280;73523;55.740;13.276;2023-12-20T01:48:46;99411.41;;;23.13;32.09
83557;BME280;73523;55.740;13.276;2023-12-20T01:51:12;99401.16;;;23.14;32.30
83557;BME280;73523;55.740;13.276;2023-12-20T01:53:38;99401.16;;;23.14;32.07
83557;BME280;73523;55.740;13.276;2023-12-20T01:56:05;99405.88;;;23.13;32.58
83557;BME280;73523;55.740;13.276;2023-12-20T01:58:30;99396.75;;;23.13;32.26
83557;BME280;73523;55.740;13.276;2023-12-20T02:00:57;99390.41;;;23.12;32.13
83557;BME280;73523;55.740;13.276;2023-12-20T02:03:22;99384.03;;;23.12;32.38
83557;BME280;73523;55.740;13.276;2023-12-20T02:05:47;99385.97;;;23.11;32.32
83557;BME280;73523;55.740;13.276;2023-12-20T02:08:13;99386.81;;;23.12;32.48
83557;BME280;73523;55.740;13.276;2023-12-20T02:10:39;99383.50;;;23.10;32.05
83557;BME280;73523;55.740;13.276;2023-12-20T02:13:06;99366.09;;;23.09;32.01
83557;BME280;73523;55.740;13.276;2023-12-20T02:15:31;99358.94;;;23.08;32.06
83557;BME280;73523;55.740;13.276;2023-12-20T02:17:56;99365.81;;;23.11;32.33
83557;BME280;73523;55.740;13.276;2023-12-20T02:20:22;99360.56;;;23.09;32.39
83557;BME280;73523;55.740;13.276;2023-12-20T02:22:47;99349.00;;;23.07;32.19
83557;BME280;73523;55.740;13.276;2023-12-20T02:25:13;99345.41;;;23.07;32.19
83557;BME280;73523;55.740;13.276;2023-12-20T02:27:38;99345.41;;;23.07;32.30
83557;BME280;73523;55.740;13.276;2023-12-20T02:30:06;99346.53;;;23.06;32.34
83557;BME280;73523;55.740;13.276;2023-12-20T02:32:31;99338.53;;;23.04;32.23
83557;BME280;73523;55.740;13.276;2023-12-20T02:34:57;99331.91;;;23.05;32.35
83557;BME280;73523;55.740;13.276;2023-12-20T02:37:23;99331.91;;;23.05;32.01
83557;BME280;73523;55.740;13.276;2023-12-20T02:39:48;99334.66;;;23.05;32.31
83557;BME280;73523;55.740;13.276;2023-12-20T02:42:13;99328.03;;;23.06;31.92
83557;BME280;73523;55.740;13.276;2023-12-20T02:44:39;99324.44;;;23.06;32.16
83557;BME280;73523;55.740;13.276;2023-12-20T02:47:04;99321.97;;;23.04;32.26
83557;BME280;73523;55.740;13.276;2023-12-20T02:49:29;99323.91;;;23.04;32.23
83557;BME280;73523;55.740;13.276;2023-12-20T02:51:55;99315.91;;;23.02;32.08
83557;BME280;73523;55.740;13.276;2023-12-20T02:54:20;99308.72;;;23.01;32.16
83557;BME280;73523;55.740;13.276;2023-12-20T02:56:46;99311.78;;;22.99;32.24
83557;BME280;73523;55.740;13.276;2023-12-20T02:59:11;99298.25;;;22.98;32.30
83557;BME280;73523;55.740;13.276;2023-12-20T03:01:44;99296.31;;;22.98;31.91
83557;BME280;73523;55.740;13.276;2023-12-20T03:04:10;99296.06;;;22.95;32.50
83557;BME280;73523;55.740;13.276;2023-12-20T03:06:36;99306.91;;;22.91;32.26
83557;BME280;73523;55.740;13.276;2023-12-20T03:09:01;99299.75;;;22.90;32.27
83557;BME280;73523;55.740;13.276;2023-12-20T03:11:27;99304.75;;;22.88;32.23
83557;BME280;73523;55.740;13.276;2023-12-20T03:13:53;99293.44;;;22.85;32.54
83557;BME280;73523;55.740;13.276;2023-12-20T03:16:18;99293.75;;;22.83;32.40
83557;BME280;73523;55.740;13.276;2023-12-20T03:18:43;99290.16;;;22.83;32.63
83557;BME280;73523;55.740;13.276;2023-12-20T03:21:09;99276.03;;;22.84;32.39
83557;BME280;73523;55.740;13.276;2023-12-20T03:23:34;99269.69;;;22.84;32.36
83557;BME280;73523;55.740;13.276;2023-12-20T03:26:00;99268.00;;;22.88;32.38
83557;BME280;73523;55.740;13.276;2023-12-20T03:28:26;99270.19;;;22.91;32.28
83557;BME280;73523;55.740;13.276;2023-12-20T03:30:51;99257.47;;;22.90;32.56
83557;BME280;73523;55.740;13.276;2023-12-20T03:33:17;99258.31;;;22.90;32.51
83557;BME280;73523;55.740;13.276;2023-12-20T03:35:42;99252.78;;;22.90;32.41
83557;BME280;73523;55.740;13.276;2023-12-20T03:38:08;99254.41;;;22.91;32.21
83557;BME280;73523;55.740;13.276;2023-12-20T03:40:33;99256.06;;;22.92;32.04
83557;BME280;73523;55.740;13.276;2023-12-20T03:42:58;99257.72;;;22.93;32.22
83557;BME280;73523;55.740;13.276;2023-12-20T03:45:24;99255.78;;;22.94;32.55
83557;BME280;73523;55.740;13.276;2023-12-20T03:47:49;99252.69;;;22.95;32.35
83557;BME280;73523;55.740;13.276;2023-12-20T03:50:15;99240.50;;;22.96;32.11
83557;BME280;73523;55.740;13.276;2023-12-20T03:52:40;99236.09;;;22.95;32.11
83557;BME280;73523;55.740;13.276;2023-12-20T03:55:06;99236.34;;;22.99;32.46
83557;BME280;73523;55.740;13.276;2023-12-20T03:57:31;99221.41;;;23.00;32.23
83557;BME280;73523;55.740;13.276;2023-12-20T03:59:56;99218.66;;;23.00;32.03
83557;BME280;73523;55.740;13.276;2023-12-20T04:02:22;99212.00;;;23.01;32.01
83557;BME280;73523;55.740;13.276;2023-12-20T04:04:47;99213.66;;;23.02;32.04
83557;BME280;73523;55.740;13.276;2023-12-20T04:07:12;99215.59;;;23.02;31.91
83557;BME280;73523;55.740;13.276;2023-12-20T04:09:38;99207.28;;;23.02;32.32
83557;BME280;73523;55.740;13.276;2023-12-20T04:12:03;99204.25;;;23.03;32.24
83557;BME280;73523;55.740;13.276;2023-12-20T04:14:30;99207.00;;;23.03;32.21
83557;BME280;73523;55.740;13.276;2023-12-20T04:16:55;99204.78;;;23.05;32.23
83557;BME280;73523;55.740;13.276;2023-12-20T04:19:20;99200.34;;;23.04;32.14
83557;BME280;73523;55.740;13.276;2023-12-20T04:21:45;99202.28;;;23.04;32.04
83557;BME280;73523;55.740;13.276;2023-12-20T04:24:11;99199.53;;;23.04;32.09
83557;BME280;73523;55.740;13.276;2023-12-20T04:26:36;99195.94;;;23.03;32.01
83557;BME280;73523;55.740;13.276;2023-12-20T04:29:01;99197.88;;;23.03;31.94
83557;BME280;73523;55.740;13.276;2023-12-20T04:31:27;99187.94;;;23.02;31.99
83557;BME280;73523;55.740;13.276;2023-12-20T04:33:52;99179.66;;;23.02;32.24
83557;BME280;73523;55.740;13.276;2023-12-20T04:36:18;99185.72;;;23.04;32.05
83557;BME280;73523;55.740;13.276;2023-12-20T04:38:43;99180.47;;;23.02;32.19
83557;BME280;73523;55.740;13.276;2023-12-20T04:41:08;99180.19;;;23.04;32.29
83557;BME280;73523;55.740;13.276;2023-12-20T04:43:33;99181.00;;;23.04;32.03
83557;BME280;73523;55.740;13.276;2023-12-20T04:45:59;99173.00;;;23.03;31.96
83557;BME280;73523;55.740;13.276;2023-12-20T04:48:24;99169.13;;;23.04;31.94
83557;BME280;73523;55.740;13.276;2023-12-20T04:50:49;99161.66;;;23.04;31.96
83557;BME280;73523;55.740;13.276;2023-12-20T04:53:15;99156.44;;;23.03;32.09
83557;BME280;73523;55.740;13.276;2023-12-20T04:55:40;99149.25;;;23.02;32.04
83557;BME280;73523;55.740;13.276;2023-12-20T04:58:05;99148.44;;;23.01;33.36
83557;BME280;73523;55.740;13.276;2023-12-20T05:00:31;99144.56;;;23.02;34.18
83557;BME280;73523;55.740;13.276;2023-12-20T05:02:56;99143.44;;;23.03;34.46
83557;BME280;73523;55.740;13.276;2023-12-20T05:05:21;99136.28;;;23.02;33.77
83557;BME280;73523;55.740;13.276;2023-12-20T05:07:47;99130.44;;;23.04;33.43
83557;BME280;73523;55.740;13.276;2023-12-20T05:10:12;99132.09;;;23.05;34.58
83557;BME280;73523;55.740;13.276;2023-12-20T05:12:37;99123.81;;;23.05;33.71
83557;BME280;73523;55.740;13.276;2023-12-20T05:15:05;99127.59;;;23.09;33.85
83557;BME280;73523;55.740;13.276;2023-12-20T05:17:31;99140.28;;;23.10;33.75
83557;BME280;73523;55.740;13.276;2023-12-20T05:19:56;99128.09;;;23.11;33.85
83557;BME280;73523;55.740;13.276;2023-12-20T05:22:21;99122.28;;;23.12;33.48
83557;BME280;73523;55.740;13.276;2023-12-20T05:24:47;99123.63;;;23.15;33.44
83557;BME280;73523;55.740;13.276;2023-12-20T05:27:12;99116.16;;;23.15;33.36
83557;BME280;73523;55.740;13.276;2023-12-20T05:29:37;99118.31;;;23.18;33.51
83557;BME280;73523;55.740;13.276;2023-12-20T05:32:03;99110.81;;;23.19;33.44
83557;BME280;73523;55.740;13.276;2023-12-20T05:34:30;99102.25;;;23.20;33.57
83557;BME280;73523;55.740;13.276;2023-12-20T05:36:55;99104.50;;;23.18;33.43
83557;BME280;73523;55.740;13.276;2023-12-20T05:39:21;99098.97;;;23.18;33.35
83557;BME280;73523;55.740;13.276;2023-12-20T05:41:46;99102.25;;;23.20;33.32
83557;BME280;73523;55.740;13.276;2023-12-20T05:44:12;99092.81;;;23.21;33.50
83557;BME280;73523;55.740;13.276;2023-12-20T05:46:37;99090.28;;;23.25;33.65
83557;BME280;73523;55.740;13.276;2023-12-20T05:49:02;99093.88;;;23.25;33.68
83557;BME280;73523;55.740;13.276;2023-12-20T05:51:27;99086.69;;;23.24;33.47
83557;BME280;73523;55.740;13.276;2023-12-20T05:53:53;99084.22;;;23.23;33.71
83557;BME280;73523;55.740;13.276;2023-12-20T05:56:18;99082.28;;;23.23;33.29
83557;BME280;73523;55.740;13.276;2023-12-20T05:58:43;99073.19;;;23.23;33.65
83557;BME280;73523;55.740;13.276;2023-12-20T06:01:09;99073.19;;;23.23;33.49
83557;BME280;73523;55.740;13.276;2023-12-20T06:03:34;99076.25;;;23.21;33.49
83557;BME280;73523;55.740;13.276;2023-12-20T06:06:05;99065.19;;;23.21;33.62
83557;BME280;73523;55.740;13.276;2023-12-20T06:08:31;99064.34;;;23.21;33.65
83557;BME280;73523;55.740;13.276;2023-12-20T06:10:56;99060.47;;;23.22;33.18
83557;BME280;73523;55.740;13.276;2023-12-20T06:13:21;99057.72;;;23.22;33.54
83557;BME280;73523;55.740;13.276;2023-12-20T06:15:47;99066.81;;;23.22;33.67
83557;BME280;73523;55.740;13.276;2023-12-20T06:18:12;99056.59;;;23.23;33.33
83557;BME280;73523;55.740;13.276;2023-12-20T06:20:37;99055.75;;;23.22;33.54
83557;BME280;73523;55.740;13.276;2023-12-20T06:23:03;99047.16;;;23.24;33.49
83557;BME280;73523;55.740;13.276;2023-12-20T06:25:28;99048.28;;;23.23;33.08
83557;BME280;73523;55.740;13.276;2023-12-20T06:27:53;99030.88;;;23.22;33.21
83557;BME280;73523;55.740;13.276;2023-12-20T06:30:19;99027.81;;;23.24;33.46
83557;BME280;73523;55.740;13.276;2023-12-20T06:32:44;99028.94;;;23.23;33.39
83557;BME280;73523;55.740;13.276;2023-12-20T06:35:11;99024.22;;;23.23;33.11
83557;BME280;73523;55.740;13.276;2023-12-20T06:37:37;99026.69;;;23.25;33.25
83557;BME280;73523;55.740;13.276;2023-12-20T06:40:02;99033.88;;;23.26;33.47
83557;BME280;73523;55.740;13.276;2023-12-20T06:42:28;99026.41;;;23.26;33.26
83557;BME280;73523;55.740;13.276;2023-12-20T06:44:53;99019.75;;;23.27;33.18
83557;BME280;73523;55.740;13.276;2023-12-20T06:47:18;99030.81;;;23.27;33.08
83557;BME280;73523;55.740;13.276;2023-12-20T06:49:44;99026.09;;;23.28;33.25
83557;BME280;73523;55.740;13.276;2023-12-20T06:52:09;99031.31;;;23.29;33.27
83557;BME280;73523;55.740;13.276;2023-12-20T06:54:34;99020.28;;;23.29;33.24
83557;BME280;73523;55.740;13.276;2023-12-20T06:57:00;99029.38;;;23.30;32.77
83557;BME280;73523;55.740;13.276;2023-12-20T06:59:25;99026.91;;;23.28;33.16
83557;BME280;73523;55.740;13.276;2023-12-20T07:01:51;99016.16;;;23.27;32.95
83557;BME280;73523;55.740;13.276;2023-12-20T07:04:16;99018.94;;;23.27;32.93
83557;BME280;73523;55.740;13.276;2023-12-20T07:06:45;99017.28;;;23.26;33.16
83557;BME280;73523;55.740;13.276;2023-12-20T07:09:11;98999.88;;;23.25;33.22
83557;BME280;73523;55.740;13.276;2023-12-20T07:11:38;99002.63;;;23.25;32.94
83557;BME280;73523;55.740;13.276;2023-12-20T07:14:03;99001.81;;;23.25;33.24
83557;BME280;73523;55.740;13.276;2023-12-20T07:16:29;99004.59;;;23.25;33.02
83557;BME280;73523;55.740;13.276;2023-12-20T07:18:54;98998.22;;;23.24;33.12
83557;BME280;73523;55.740;13.276;2023-12-20T07:21:19;98993.00;;;23.23;32.75
83557;BME280;73523;55.740;13.276;2023-12-20T07:23:45;98992.69;;;23.24;33.12
83557;BME280;73523;55.740;13.276;2023-12-20T07:26:10;98984.72;;;23.23;33.12
83557;BME280;73523;55.740;13.276;2023-12-20T07:28:36;98983.88;;;23.22;33.06
83557;BME280;73523;55.740;13.276;2023-12-20T07:31:01;98993.00;;;23.23;33.06
83557;BME280;73523;55.740;13.276;2023-12-20T07:33:27;98991.06;;;23.23;33.31
83557;BME280;73523;55.740;13.276;2023-12-20T07:35:52;98983.88;;;23.22;32.98
83557;BME280;73523;55.740;13.276;2023-12-20T07:38:17;98991.88;;;23.24;33.33
83557;BME280;73523;55.740;13.276;2023-12-20T07:40:43;98992.69;;;23.24;32.89
83557;BME280;73523;55.740;13.276;2023-12-20T07:43:08;98990.75;;;23.25;33.07
83557;BME280;73523;55.740;13.276;2023-12-20T07:45:33;98988.00;;;23.25;33.11
83557;BME280;73523;55.740;13.276;2023-12-20T07:47:59;98991.28;;;23.27;32.69
83557;BME280;73523;55.740;13.276;2023-12-20T07:50:24;98990.47;;;23.26;32.80
83557;BME280;73523;55.740;13.276;2023-12-20T07:52:49;98992.09;;;23.27;32.99
83557;BME280;73523;55.740;13.276;2023-12-20T07:55:15;98988.50;;;23.27;32.79
83557;BME280;73523;55.740;13.276;2023-12-20T07:57:40;98985.75;;;23.27;32.79
83557;BME280;73523;55.740;13.276;2023-12-20T08:00:06;98985.16;;;23.30;32.75
83557;BME280;73523;55.740;13.276;2023-12-20T08:02:31;98977.16;;;23.28;32.83
83557;BME280;73523;55.740;13.276;2023-12-20T08:04:57;98980.75;;;23.29;32.90
83557;BME280;73523;55.740;13.276;2023-12-20T08:07:22;98966.09;;;23.28;33.11
83557;BME280;73523;55.740;13.276;2023-12-20T08:09:47;98966.09;;;23.28;32.60
83557;BME280;73523;55.740;13.276;2023-12-20T08:12:12;98969.97;;;23.27;33.09
83557;BME280;73523;55.740;13.276;2023-12-20T08:14:38;98957.81;;;23.28;32.67
83557;BME280;73523;55.740;13.276;2023-12-20T08:17:03;98964.47;;;23.27;32.96
83557;BME280;73523;55.740;13.276;2023-12-20T08:19:28;98971.09;;;23.26;33.05
83557;BME280;73523;55.740;13.276;2023-12-20T08:21:54;98952.88;;;23.25;32.84
83557;BME280;73523;55.740;13.276;2023-12-20T08:24:19;98931.88;;;23.24;33.08
83557;BME280;73523;55.740;13.276;2023-12-20T08:26:44;98941.81;;;23.25;32.82
83557;BME280;73523;55.740;13.276;2023-12-20T08:29:13;98952.06;;;23.25;32.64
83557;BME280;73523;55.740;13.276;2023-12-20T08:31:38;98960.66;;;23.23;32.83
83557;BME280;73523;55.740;13.276;2023-12-20T08:34:03;98956.75;;;23.24;32.90
83557;BME280;73523;55.740;13.276;2023-12-20T08:36:29;98953.19;;;23.24;32.95
83557;BME280;73523;55.740;13.276;2023-12-20T08:38:54;98965.66;;;23.21;32.83
83557;BME280;73523;55.740;13.276;2023-12-20T08:41:20;98971.19;;;23.21;32.53
83557;BME280;73523;55.740;13.276;2023-12-20T08:43:45;98978.66;;;23.21;32.48
83557;BME280;73523;55.740;13.276;2023-12-20T08:46:11;98965.47;;;23.18;32.68
83557;BME280;73523;55.740;13.276;2023-12-20T08:48:37;98973.44;;;23.19;32.88
83557;BME280;73523;55.740;13.276;2023-12-20T08:51:03;98977.13;;;23.15;33.05
83557;BME280;73523;55.740;13.276;2023-12-20T08:53:28;98967.50;;;23.12;32.92
83557;BME280;73523;55.740;13.276;2023-12-20T08:55:54;98957.25;;;23.13;32.98
83557;BME280;73523;55.740;13.276;2023-12-20T08:58:19;98946.81;;;23.10;32.81
83557;BME280;73523;55.740;13.276;2023-12-20T09:00:45;98934.63;;;23.11;32.71
83557;BME280;73523;55.740;13.276;2023-12-20T09:03:10;98950.09;;;23.12;33.06
83557;BME280;73523;55.740;13.276;2023-12-20T09:05:35;98948.38;;;23.16;33.05
83557;BME280;73523;55.740;13.276;2023-12-20T09:08:01;98952.25;;;23.15;32.97
83557;BME280;73523;55.740;13.276;2023-12-20T09:10:26;98944.78;;;23.15;32.61
83557;BME280;73523;55.740;13.276;2023-12-20T09:12:52;98937.84;;;23.18;32.71
83557;BME280;73523;55.740;13.276;2023-12-20T09:15:26;98944.19;;;23.18;32.98
83557;BME280;73523;55.740;13.276;2023-12-20T09:17:52;98950.50;;;23.19;32.79
83557;BME280;73523;55.740;13.276;2023-12-20T09:20:17;98941.31;;;23.23;32.68
83557;BME280;73523;55.740;13.276;2023-12-20T09:22:43;98935.88;;;23.18;32.52
83557;BME280;73523;55.740;13.276;2023-12-20T09:25:10;98925.84;;;23.22;32.35
83557;BME280;73523;55.740;13.276;2023-12-20T09:27:36;98929.72;;;23.21;32.60
83557;BME280;73523;55.740;13.276;2023-12-20T09:30:01;98924.19;;;23.21;32.76
83557;BME280;73523;55.740;13.276;2023-12-20T09:32:27;98920.31;;;23.22;32.66
83557;BME280;73523;55.740;13.276;2023-12-20T09:34:52;98925.84;;;23.22;32.52
83557;BME280;73523;55.740;13.276;2023-12-20T09:37:17;98918.38;;;23.23;32.52
83557;BME280;73523;55.740;13.276;2023-12-20T09:39:43;98912.84;;;23.23;32.91
83557;BME280;73523;55.740;13.276;2023-12-20T09:42:11;98912.84;;;23.23;32.55
83557;BME280;73523;55.740;13.276;2023-12-20T09:44:37;98912.84;;;23.23;32.43
83557;BME280;73523;55.740;13.276;2023-12-20T09:47:06;98908.13;;;23.23;32.56
83557;BME280;73523;55.740;13.276;2023-12-20T09:49:32;98901.47;;;23.24;32.93
83557;BME280;73523;55.740;13.276;2023-12-20T09:51:59;98897.91;;;23.24;32.51
83557;BME280;73523;55.740;13.276;2023-12-20T09:54:25;98895.66;;;23.26;32.79
83557;BME280;73523;55.740;13.276;2023-12-20T09:56:51;98902.31;;;23.25;32.51
83557;BME280;73523;55.740;13.276;2023-12-20T09:59:17;98896.78;;;23.25;32.86
83557;BME280;73523;55.740;13.276;2023-12-20T10:01:43;98893.19;;;23.24;32.88
83557;BME280;73523;55.740;13.276;2023-12-20T10:04:09;98882.13;;;23.24;32.49
83557;BME280;73523;55.740;13.276;2023-12-20T10:06:39;98880.19;;;23.25;32.85
83557;BME280;73523;55.740;13.276;2023-12-20T10:09:04;98871.88;;;23.25;32.74
83557;BME280;73523;55.740;13.276;2023-12-20T10:11:30;98860.84;;;23.25;32.54
83557;BME280;73523;55.740;13.276;2023-12-20T10:14:00;98863.28;;;23.26;32.72
83557;BME280;73523;55.740;13.276;2023-12-20T10:16:28;98854.19;;;23.26;32.84
83557;BME280;73523;55.740;13.276;2023-12-20T10:18:54;98843.94;;;23.26;32.53
83557;BME280;73523;55.740;13.276;2023-12-20T10:21:20;98836.47;;;23.27;32.54
83557;BME280;73523;55.740;13.276;2023-12-20T10:23:46;98834.53;;;23.27;32.28
83557;BME280;73523;55.740;13.276;2023-12-20T10:26:19;98832.88;;;23.26;32.85
83557;BME280;73523;55.740;13.276;2023-12-20T10:28:45;98821.53;;;23.28;32.60
83557;BME280;73523;55.740;13.276;2023-12-20T10:31:26;98825.09;;;23.28;32.72
83557;BME280;73523;55.740;13.276;2023-12-20T10:33:52;98814.03;;;23.28;32.64
83557;BME280;73523;55.740;13.276;2023-12-20T10:36:17;98811.78;;;23.30;32.56
83557;BME280;73523;55.740;13.276;2023-12-20T10:38:44;98814.88;;;23.29;32.41
83557;BME280;73523;55.740;13.276;2023-12-20T10:41:09;98800.75;;;23.30;32.49
83557;BME280;73523;55.740;13.276;2023-12-20T10:43:36;98796.34;;;23.29;32.63
83557;BME280;73523;55.740;13.276;2023-12-20T10:46:03;98793.88;;;23.28;32.45
83557;BME280;73523;55.740;13.276;2023-12-20T10:48:30;98783.34;;;23.30;32.47
83557;BME280;73523;55.740;13.276;2023-12-20T10:50:56;98781.69;;;23.29;32.79
83557;BME280;73523;55.740;13.276;2023-12-20T10:53:22;98782.50;;;23.29;32.49
83557;BME280;73523;55.740;13.276;2023-12-20T10:55:49;98771.44;;;23.29;32.44
83557;BME280;73523;55.740;13.276;2023-12-20T10:58:19;98770.94;;;23.27;32.55
83557;BME280;73523;55.740;13.276;2023-12-20T11:00:45;98764.28;;;23.28;32.86
83557;BME280;73523;55.740;13.276;2023-12-20T11:03:13;98765.09;;;23.29;32.73
83557;BME280;73523;55.740;13.276;2023-12-20T11:05:43;98758.75;;;23.28;32.64
83557;BME280;73523;55.740;13.276;2023-12-20T11:08:17;98756.00;;;23.28;32.53
83557;BME280;73523;55.740;13.276;2023-12-20T11:11:11;98754.06;;;23.29;32.41
83557;BME280;73523;55.740;13.276;2023-12-20T11:13:55;98757.63;;;23.29;32.63
83557;BME280;73523;55.740;13.276;2023-12-20T11:16:23;98754.88;;;23.29;32.71
83557;BME280;73523;55.740;13.276;2023-12-20T11:18:50;98750.97;;;23.30;32.87
83557;BME280;73523;55.740;13.276;2023-12-20T11:21:16;98754.53;;;23.31;32.52
83557;BME280;73523;55.740;13.276;2023-12-20T11:23:42;98750.63;;;23.32;32.28
83557;BME280;73523;55.740;13.276;2023-12-20T11:26:07;98741.22;;;23.33;32.54
83557;BME280;73523;55.740;13.276;2023-12-20T11:28:32;98745.94;;;23.32;32.53
83557;BME280;73523;55.740;13.276;2023-12-20T11:31:00;98749.19;;;23.34;32.82
83557;BME280;73523;55.740;13.276;2023-12-20T11:33:36;98746.25;;;23.31;32.66
83557;BME280;73523;55.740;13.276;2023-12-20T11:36:02;98740.41;;;23.32;32.71
83557;BME280;73523;55.740;13.276;2023-12-20T11:38:36;98733.75;;;23.33;32.51
83557;BME280;73523;55.740;13.276;2023-12-20T11:41:05;98730.66;;;23.35;32.24
83557;BME280;73523;55.740;13.276;2023-12-20T11:43:37;98732.31;;;23.36;32.66
83557;BME280;73523;55.740;13.276;2023-12-20T11:46:07;98727.59;;;23.37;32.29
83557;BME280;73523;55.740;13.276;2023-12-20T11:48:39;98719.00;;;23.38;32.21
83557;BME280;73523;55.740;13.276;2023-12-20T11:51:12;98712.34;;;23.39;32.28
83557;BME280;73523;55.740;13.276;2023-12-20T11:53:38;98716.53;;;23.37;32.13
83557;BME280;73523;55.740;13.276;2023-12-20T11:56:05;98711.53;;;23.39;32.51
83557;BME280;73523;55.740;13.276;2023-12-20T11:58:31;98705.16;;;23.38;32.56
83557;BME280;73523;55.740;13.276;2023-12-20T12:00:56;98708.75;;;23.39;32.38
83557;BME280;73523;55.740;13.276;2023-12-20T12:03:22;98706.81;;;23.39;32.49
83557;BME280;73523;55.740;13.276;2023-12-20T12:05:49;98702.41;;;23.38;32.20
83557;BME280;73523;55.740;13.276;2023-12-20T12:08:14;98694.94;;;23.39;32.26
83557;BME280;73523;55.740;13.276;2023-12-20T12:10:39;98693.28;;;23.38;32.22
83557;BME280;73523;55.740;13.276;2023-12-20T12:13:05;98691.66;;;23.37;32.14
83557;BME280;73523;55.740;13.276;2023-12-20T12:15:30;98686.94;;;23.37;32.37
83557;BME280;73523;55.740;13.276;2023-12-20T12:17:56;98691.66;;;23.37;32.37
83557;BME280;73523;55.740;13.276;2023-12-20T12:20:22;98680.09;;;23.34;32.53
83557;BME280;73523;55.740;13.276;2023-12-20T12:23:02;98677.31;;;23.34;32.05
83557;BME280;73523;55.740;13.276;2023-12-20T12:25:29;98678.13;;;23.35;32.15
83557;BME280;73523;55.740;13.276;2023-12-20T12:27:56;98670.97;;;23.34;32.54
83557;BME280;73523;55.740;13.276;2023-12-20T12:30:21;98672.63;;;23.35;32.41
83557;BME280;73523;55.740;13.276;2023-12-20T12:32:47;98678.13;;;23.35;32.53
83557;BME280;73523;55.740;13.276;2023-12-20T12:35:14;98668.72;;;23.36;32.62
83557;BME280;73523;55.740;13.276;2023-12-20T12:37:40;98678.97;;;23.35;32.31
83557;BME280;73523;55.740;13.276;2023-12-20T12:40:09;98672.31;;;23.37;32.50
83557;BME280;73523;55.740;13.276;2023-12-20T12:42:35;98685.00;;;23.38;32.52
83557;BME280;73523;55.740;13.276;2023-12-20T12:45:00;98696.56;;;23.40;32.33